createdAt,value
2018-08-07T00:00:56.180Z,73.20
2018-08-07T00:03:29.179Z,73.20
2018-08-07T00:06:02.177Z,73.00
2018-08-07T00:08:35.137Z,73.30
2018-08-07T00:11:08.971Z,73.30
2018-08-07T00:13:42.111Z,73.60
2018-08-07T00:16:15.182Z,75.30
2018-08-07T00:18:48.314Z,77.40
2018-08-07T00:21:21.354Z,77.10
2018-08-07T00:23:55.085Z,77.50
2018-08-07T00:26:28.226Z,77.80
2018-08-07T00:29:01.282Z,78.20
2018-08-07T00:31:34.242Z,78.60
2018-08-07T00:34:07.318Z,78.80
2018-08-07T00:36:40.422Z,79.40
2018-08-07T00:39:15.102Z,79.70
2018-08-07T00:41:48.065Z,80.00
2018-08-07T00:44:22.027Z,80.30
2018-08-07T00:46:55.002Z,80.50
2018-08-07T00:49:30.243Z,79.80
2018-08-07T00:52:03.231Z,78.60
2018-08-07T00:54:36.236Z,78.10
2018-08-07T00:57:09.349Z,78.10
2018-08-07T00:59:42.410Z,79.00
2018-08-07T01:02:15.415Z,79.70
2018-08-07T01:04:48.488Z,80.00
2018-08-07T01:07:21.437Z,82.70
2018-08-07T01:09:54.654Z,82.30
2018-08-07T01:12:28.538Z,82.40
2018-08-07T01:15:01.484Z,82.40
2018-08-07T01:17:34.458Z,82.40
2018-08-07T01:20:09.607Z,82.40
2018-08-07T01:22:43.210Z,82.80
2018-08-07T01:25:21.328Z,82.90
2018-08-07T01:27:54.475Z,82.90
2018-08-07T01:30:29.557Z,82.90
2018-08-07T01:33:02.735Z,82.20
2018-08-07T01:35:35.667Z,82.00
2018-08-07T01:38:08.768Z,82.20
2018-08-07T01:40:41.694Z,82.20
2018-08-07T01:43:14.878Z,82.30
2018-08-07T01:45:47.927Z,82.30
2018-08-07T01:48:25.491Z,82.30
2018-08-07T01:50:58.595Z,82.20
2018-08-07T01:53:32.567Z,82.20
2018-08-07T01:56:06.475Z,82.40
2018-08-07T01:58:39.626Z,82.40
2018-08-07T02:01:12.580Z,82.30
2018-08-07T02:03:45.566Z,82.50
2018-08-07T02:06:18.649Z,82.40
2018-08-07T02:08:51.568Z,82.30
2018-08-07T02:11:24.653Z,82.30
2018-08-07T02:13:58.783Z,82.30
2018-08-07T02:16:32.705Z,82.30
2018-08-07T02:19:05.823Z,82.40
2018-08-07T02:21:38.861Z,82.40
2018-08-07T02:24:11.847Z,82.40
2018-08-07T02:26:44.982Z,82.30
2018-08-07T02:29:17.989Z,82.30
2018-08-07T02:31:51.139Z,82.40
2018-08-07T02:34:25.047Z,82.40
2018-08-07T02:36:58.150Z,82.40
2018-08-07T02:39:31.218Z,82.40
2018-08-07T02:42:04.366Z,82.50
2018-08-07T02:44:37.335Z,82.50
2018-08-07T02:47:10.381Z,82.40
2018-08-07T02:49:43.487Z,82.20
2018-08-07T02:52:16.446Z,82.10
2018-08-07T02:54:49.652Z,82.10
2018-08-07T02:57:22.786Z,82.10
2018-08-07T02:59:55.752Z,82.10
2018-08-07T03:02:28.771Z,82.10
2018-08-07T03:05:01.787Z,82.10
2018-08-07T03:07:35.431Z,82.20
2018-08-07T03:10:09.261Z,82.60
2018-08-07T03:12:42.382Z,83.00
2018-08-07T03:15:17.460Z,83.00
2018-08-07T03:17:51.052Z,82.80
2018-08-07T03:20:24.035Z,83.00
2018-08-07T03:22:57.039Z,83.10
2018-08-07T03:25:31.349Z,83.30
2018-08-07T03:28:04.386Z,83.30
2018-08-07T03:30:37.513Z,83.10
2018-08-07T03:33:10.773Z,82.90
2018-08-07T03:35:43.754Z,82.90
2018-08-07T03:38:16.790Z,82.90
2018-08-07T03:40:49.734Z,82.90
2018-08-07T03:43:22.936Z,82.80
2018-08-07T03:45:55.968Z,82.80
2018-08-07T03:48:29.059Z,82.70
2018-08-07T03:51:02.155Z,82.50
2018-08-07T03:53:35.966Z,82.40
2018-08-07T03:56:09.126Z,82.60
2018-08-07T03:58:42.227Z,83.30
2018-08-07T04:01:15.402Z,83.30
2018-08-07T04:03:48.395Z,82.90
2018-08-07T04:06:21.464Z,82.30
2018-08-07T04:08:54.461Z,82.10
2018-08-07T04:11:27.574Z,82.00
2018-08-07T04:14:00.598Z,82.10
2018-08-07T04:16:33.738Z,82.10
2018-08-07T04:19:08.539Z,82.70
2018-08-07T04:21:41.719Z,81.90
2018-08-07T04:24:15.032Z,81.60
2018-08-07T04:26:48.279Z,81.70
2018-08-07T04:29:21.330Z,81.80
2018-08-07T04:31:54.322Z,81.80
2018-08-07T04:34:27.478Z,81.70
2018-08-07T04:37:00.630Z,81.60
2018-08-07T04:39:34.663Z,81.50
2018-08-07T04:42:07.678Z,81.50
2018-08-07T04:44:41.794Z,81.60
2018-08-07T04:47:16.096Z,81.70
2018-08-07T04:49:49.138Z,81.70
2018-08-07T04:54:53.687Z,81.90
2018-08-07T04:57:26.972Z,82.30
2018-08-07T05:00:00.202Z,81.80
2018-08-07T05:02:33.202Z,81.50
2018-08-07T05:05:06.302Z,81.40
2018-08-07T05:07:39.418Z,81.20
2018-08-07T05:10:16.064Z,81.20
2018-08-07T05:12:49.540Z,81.20
2018-08-07T05:15:22.535Z,81.30
2018-08-07T05:17:55.538Z,80.90
2018-08-07T05:20:28.477Z,80.90
2018-08-07T05:23:01.488Z,80.60
2018-08-07T05:25:34.626Z,80.70
2018-08-07T05:28:07.691Z,80.70
2018-08-07T05:30:40.696Z,80.90
2018-08-07T05:33:13.754Z,81.50
2018-08-07T05:35:46.767Z,79.20
2018-08-07T05:38:19.748Z,76.60
2018-08-07T05:40:52.669Z,74.30
2018-08-07T05:43:25.714Z,72.70
2018-08-07T05:45:58.753Z,70.30
2018-08-07T05:48:31.814Z,68.30
2018-08-07T05:51:05.270Z,66.60
2018-08-07T05:53:38.255Z,65.40
2018-08-07T05:56:11.306Z,63.90
2018-08-07T05:58:44.357Z,63.30
2018-08-07T06:01:17.404Z,62.40
2018-08-07T06:03:50.384Z,61.00
2018-08-07T06:06:23.370Z,63.70
2018-08-07T06:08:56.471Z,64.80
2018-08-07T06:11:29.626Z,65.40
2018-08-07T06:14:02.692Z,63.70
2018-08-07T06:16:36.479Z,62.60
2018-08-07T06:19:09.703Z,61.40
2018-08-07T06:21:42.729Z,60.70
2018-08-07T06:24:15.723Z,59.50
2018-08-07T06:26:48.755Z,59.50
2018-08-07T06:29:21.926Z,58.70
2018-08-07T06:31:54.908Z,58.70
2018-08-07T06:34:27.948Z,57.90
2018-08-07T06:37:00.938Z,57.90
2018-08-07T06:39:33.889Z,58.20
2018-08-07T06:42:06.922Z,57.90
2018-08-07T06:44:39.965Z,57.60
2018-08-07T06:47:13.945Z,57.30
2018-08-07T06:49:46.998Z,58.50
2018-08-07T06:52:20.490Z,61.40
2018-08-07T06:54:53.509Z,60.90
2018-08-07T06:57:26.676Z,59.70
2018-08-07T06:59:59.669Z,59.30
2018-08-07T07:02:32.666Z,58.70
2018-08-07T07:05:05.730Z,58.20
2018-08-07T07:07:38.737Z,58.30
2018-08-07T07:10:13.342Z,58.30
2018-08-07T07:12:48.285Z,57.70
2018-08-07T07:15:21.426Z,57.80
2018-08-07T07:17:54.563Z,57.60
2018-08-07T07:20:27.564Z,58.60
2018-08-07T07:23:00.671Z,59.20
2018-08-07T07:25:33.670Z,59.60
2018-08-07T07:28:06.798Z,59.70
2018-08-07T07:30:39.742Z,60.00
2018-08-07T07:33:12.870Z,60.50
2018-08-07T07:35:46.035Z,61.50
2018-08-07T07:38:19.035Z,61.80
2018-08-07T07:40:52.165Z,62.50
2018-08-07T07:43:25.211Z,63.20
2018-08-07T07:45:58.183Z,63.70
2018-08-07T07:48:31.140Z,63.90
2018-08-07T07:51:04.213Z,64.60
2018-08-07T07:53:37.241Z,65.00
2018-08-07T07:56:10.362Z,65.40
2018-08-07T07:58:43.520Z,65.30
2018-08-07T08:01:16.507Z,65.20
2018-08-07T08:03:49.644Z,65.80
2018-08-07T08:06:22.720Z,65.80
2018-08-07T08:08:55.770Z,66.00
2018-08-07T08:11:28.827Z,66.20
2018-08-07T08:14:02.029Z,66.60
2018-08-07T08:16:35.111Z,66.70
2018-08-07T08:19:08.164Z,66.70
2018-08-07T08:21:41.130Z,66.70
2018-08-07T08:24:14.968Z,67.20
2018-08-07T08:26:47.940Z,69.60
2018-08-07T08:29:21.209Z,68.60
2018-08-07T08:31:54.193Z,66.70
2018-08-07T08:34:27.213Z,65.20
2018-08-07T08:37:00.154Z,63.50
2018-08-07T08:39:33.315Z,62.50
2018-08-07T08:42:06.987Z,60.70
2018-08-07T08:44:40.056Z,60.90
2018-08-07T08:47:13.242Z,59.70
2018-08-07T08:49:46.439Z,59.20
2018-08-07T08:52:19.476Z,58.60
2018-08-07T08:54:52.550Z,57.90
2018-08-07T08:57:25.546Z,57.70
2018-08-07T08:59:58.441Z,57.40
2018-08-07T09:02:31.423Z,56.90
2018-08-07T09:05:04.459Z,56.70
2018-08-07T09:07:38.567Z,56.50
2018-08-07T09:10:19.731Z,56.40
2018-08-07T09:12:53.751Z,55.90
2018-08-07T09:15:26.774Z,56.10
2018-08-07T09:17:59.841Z,55.60
2018-08-07T09:20:34.242Z,55.80
2018-08-07T09:23:07.404Z,55.80
2018-08-07T09:25:41.275Z,56.10
2018-08-07T09:28:14.918Z,56.80
2018-08-07T09:30:48.077Z,57.10
2018-08-07T09:33:27.008Z,57.40
2018-08-07T09:36:00.140Z,57.50
2018-08-07T09:38:33.126Z,57.70
2018-08-07T09:41:07.042Z,57.90
2018-08-07T09:43:41.188Z,58.10
2018-08-07T09:46:14.814Z,58.30
2018-08-07T09:48:47.807Z,58.60
2018-08-07T09:51:20.874Z,58.90
2018-08-07T09:53:53.955Z,59.20
2018-08-07T09:56:26.919Z,59.40
2018-08-07T09:58:59.984Z,59.60
2018-08-07T10:01:35.156Z,59.70
2018-08-07T10:04:08.146Z,59.80
2018-08-07T10:06:41.080Z,60.00
2018-08-07T10:09:15.659Z,60.30
2018-08-07T10:11:48.675Z,60.50
2018-08-07T10:14:21.714Z,60.70
2018-08-07T10:16:54.788Z,60.90
2018-08-07T10:19:27.747Z,61.10
2018-08-07T10:22:00.800Z,61.30
2018-08-07T10:24:33.748Z,61.60
2018-08-07T10:27:06.939Z,61.80
2018-08-07T10:29:40.011Z,61.90
2018-08-07T10:32:14.049Z,62.00
2018-08-07T10:34:47.161Z,62.30
2018-08-07T10:37:20.352Z,62.50
2018-08-07T10:39:53.227Z,63.30
2018-08-07T10:42:26.255Z,62.70
2018-08-07T10:44:59.310Z,62.90
2018-08-07T10:47:32.259Z,63.10
2018-08-07T10:50:05.289Z,63.20
2018-08-07T10:52:38.429Z,63.40
2018-08-07T10:55:11.873Z,63.60
2018-08-07T10:57:46.612Z,63.80
2018-08-07T11:00:21.822Z,63.90
2018-08-07T11:02:55.309Z,64.10
2018-08-07T11:05:29.792Z,64.10
2018-08-07T11:08:02.940Z,64.30
2018-08-07T11:10:35.912Z,64.40
2018-08-07T11:13:08.995Z,64.50
2018-08-07T11:15:42.079Z,64.70
2018-08-07T11:18:15.142Z,64.90
2018-08-07T11:20:48.237Z,64.90
2018-08-07T11:23:21.316Z,65.00
2018-08-07T11:25:54.238Z,65.10
2018-08-07T11:28:27.317Z,65.30
2018-08-07T11:31:00.451Z,65.30
2018-08-07T11:33:33.415Z,65.50
2018-08-07T11:36:06.349Z,65.60
2018-08-07T11:38:39.481Z,65.70
2018-08-07T11:41:12.509Z,65.80
2018-08-07T11:43:45.522Z,65.90
2018-08-07T11:46:18.651Z,66.00
2018-08-07T11:48:51.666Z,66.10
2018-08-07T11:51:24.745Z,66.10
2018-08-07T11:53:57.730Z,66.10
2018-08-07T11:56:30.651Z,66.30
2018-08-07T11:59:03.939Z,66.40
2018-08-07T12:01:36.989Z,66.40
2018-08-07T12:04:10.160Z,66.60
2018-08-07T12:06:43.046Z,66.60
2018-08-07T12:09:16.092Z,66.70
2018-08-07T12:11:49.159Z,66.80
2018-08-07T12:14:22.316Z,66.90
2018-08-07T12:16:55.318Z,66.90
2018-08-07T12:19:28.312Z,67.10
2018-08-07T12:22:01.334Z,67.10
2018-08-07T12:24:34.302Z,67.20
2018-08-07T12:27:07.509Z,67.10
2018-08-07T12:29:40.493Z,67.20
2018-08-07T12:32:13.475Z,67.30
2018-08-07T12:34:46.499Z,67.50
2018-08-07T12:37:19.523Z,67.50
2018-08-07T12:39:52.645Z,67.50
2018-08-07T12:42:25.666Z,67.70
2018-08-07T12:44:58.757Z,67.70
2018-08-07T12:47:31.775Z,67.60
2018-08-07T12:50:05.753Z,67.60
2018-08-07T12:52:39.143Z,67.70
2018-08-07T12:55:13.953Z,68.00
2018-08-07T12:57:47.669Z,68.10
2018-08-07T13:00:23.532Z,68.20
2018-08-07T13:02:56.540Z,68.30
2018-08-07T13:05:30.633Z,68.40
2018-08-07T13:08:03.714Z,68.40
2018-08-07T13:10:36.736Z,68.50
2018-08-07T13:13:09.747Z,68.40
2018-08-07T13:15:42.767Z,68.50
2018-08-07T13:18:15.765Z,68.60
2018-08-07T13:20:49.731Z,68.70
2018-08-07T13:23:22.794Z,68.70
2018-08-07T13:25:55.755Z,68.70
2018-08-07T13:28:29.563Z,68.90
2018-08-07T13:31:02.604Z,68.90
2018-08-07T13:33:35.584Z,69.10
2018-08-07T13:36:08.644Z,69.00
2018-08-07T13:38:41.646Z,69.10
2018-08-07T13:41:15.070Z,69.20
2018-08-07T13:43:48.206Z,69.20
2018-08-07T13:46:21.722Z,69.30
2018-08-07T13:48:54.677Z,69.20
2018-08-07T13:51:27.784Z,69.30
2018-08-07T13:54:00.712Z,69.30
2018-08-07T13:56:33.740Z,69.40
2018-08-07T13:59:06.794Z,69.50
2018-08-07T14:01:40.602Z,69.70
2018-08-07T14:04:13.673Z,69.60
2018-08-07T14:06:46.845Z,69.80
2018-08-07T14:09:19.947Z,70.00
2018-08-07T14:11:52.924Z,69.90
2018-08-07T14:14:26.000Z,69.80
2018-08-07T14:16:58.998Z,70.00
2018-08-07T14:19:32.407Z,70.00
2018-08-07T14:22:05.895Z,70.20
2018-08-07T14:24:39.114Z,70.20
2018-08-07T14:27:12.180Z,70.30
2018-08-07T14:29:46.077Z,70.30
2018-08-07T14:32:19.070Z,70.40
2018-08-07T14:34:52.055Z,70.40
2018-08-07T14:37:25.170Z,70.40
2018-08-07T14:39:58.275Z,70.40
2018-08-07T14:42:31.416Z,70.60
2018-08-07T14:45:04.551Z,70.50
2018-08-07T14:47:37.473Z,70.40
2018-08-07T14:50:11.687Z,70.60
2018-08-07T14:52:44.709Z,70.70
2018-08-07T14:55:18.549Z,70.70
2018-08-07T14:57:51.494Z,70.80
2018-08-07T15:00:26.416Z,70.90
2018-08-07T15:02:59.455Z,70.90
2018-08-07T15:05:32.464Z,70.90
2018-08-07T15:08:05.511Z,71.00
2018-08-07T15:10:38.591Z,71.10
2018-08-07T15:13:11.568Z,71.10
2018-08-07T15:15:44.644Z,71.10
2018-08-07T15:18:17.701Z,71.20
2018-08-07T15:20:50.825Z,71.30
2018-08-07T15:23:23.843Z,71.40
2018-08-07T15:25:56.911Z,71.40
2018-08-07T15:28:30.918Z,71.40
2018-08-07T15:31:03.911Z,71.40
2018-08-07T15:33:37.143Z,71.40
2018-08-07T15:36:10.190Z,71.40
2018-08-07T15:38:45.050Z,71.40
2018-08-07T15:41:18.466Z,71.50
2018-08-07T15:43:51.470Z,71.50
2018-08-07T15:46:24.512Z,71.60
2018-08-07T15:48:57.683Z,71.60
2018-08-07T15:51:31.605Z,71.70
2018-08-07T15:54:04.512Z,71.70
2018-08-07T15:56:37.610Z,75.00
2018-08-07T15:59:10.782Z,76.20
2018-08-07T16:01:43.799Z,75.20
2018-08-07T16:04:16.919Z,74.40
2018-08-07T16:06:50.746Z,75.10
2018-08-07T16:09:23.886Z,75.60
2018-08-07T16:11:56.805Z,75.70
2018-08-07T16:14:29.791Z,76.60
2018-08-07T16:17:02.714Z,77.10
2018-08-07T16:19:35.709Z,77.00
2018-08-07T16:22:08.882Z,76.30
2018-08-07T16:24:41.898Z,74.40
2018-08-07T16:27:15.034Z,73.20
2018-08-07T16:29:48.175Z,72.20
2018-08-07T16:32:21.282Z,72.10
2018-08-07T16:34:55.254Z,72.80
2018-08-07T16:37:28.687Z,73.40
2018-08-07T16:40:01.735Z,73.40
2018-08-07T16:42:35.003Z,74.10
2018-08-07T16:45:09.073Z,74.00
2018-08-07T16:47:42.506Z,74.20
2018-08-07T16:50:18.223Z,74.70
2018-08-07T16:52:52.347Z,75.20
2018-08-07T16:55:26.213Z,75.30
2018-08-07T16:57:59.304Z,75.30
2018-08-07T17:00:32.338Z,75.40
2018-08-07T17:03:05.290Z,75.90
2018-08-07T17:05:38.402Z,75.70
2018-08-07T17:08:11.834Z,76.00
2018-08-07T17:10:44.864Z,75.40
2018-08-07T17:13:18.683Z,75.20
2018-08-07T17:15:51.661Z,75.00
2018-08-07T17:18:24.833Z,74.70
2018-08-07T17:20:58.002Z,74.80
2018-08-07T17:23:30.976Z,74.90
2018-08-07T17:26:04.015Z,75.10
2018-08-07T17:28:37.118Z,75.80
2018-08-07T17:31:10.425Z,76.40
2018-08-07T17:33:43.373Z,76.50
2018-08-07T17:36:16.331Z,77.10
2018-08-07T17:38:49.345Z,77.40
2018-08-07T17:41:22.414Z,77.20
2018-08-07T17:43:55.486Z,77.00
2018-08-07T17:46:28.395Z,76.80
2018-08-07T17:49:01.414Z,76.40
2018-08-07T17:51:35.506Z,75.60
2018-08-07T17:54:08.649Z,75.70
2018-08-07T17:56:41.589Z,75.80
2018-08-07T17:59:15.034Z,76.70
2018-08-07T18:01:48.095Z,76.70
2018-08-07T18:04:21.061Z,76.80
2018-08-07T18:06:54.173Z,76.70
2018-08-07T18:09:27.278Z,76.70
2018-08-07T18:12:01.883Z,76.90
2018-08-07T18:14:34.938Z,76.90
2018-08-07T18:17:08.979Z,77.20
2018-08-07T18:19:42.003Z,77.30
2018-08-07T18:22:15.229Z,77.50
2018-08-07T18:24:48.193Z,77.80
2018-08-07T18:27:21.906Z,78.30
2018-08-07T18:29:54.883Z,78.20
2018-08-07T18:32:27.942Z,78.50
2018-08-07T18:35:00.874Z,79.00
2018-08-07T18:37:33.902Z,79.40
2018-08-07T18:40:07.938Z,79.40
2018-08-07T18:42:41.062Z,79.40
2018-08-07T18:45:15.946Z,78.90
2018-08-07T18:47:49.180Z,79.00
2018-08-07T18:50:25.119Z,78.70
2018-08-07T18:52:58.265Z,79.00
2018-08-07T18:55:31.328Z,79.50
2018-08-07T19:00:35.815Z,79.30
2018-08-07T19:03:08.882Z,79.00
2018-08-07T19:05:41.914Z,78.90
2018-08-07T19:08:14.871Z,79.50
2018-08-07T19:10:48.522Z,80.30
2018-08-07T19:13:21.577Z,80.50
2018-08-07T19:15:54.585Z,80.30
2018-08-07T19:18:27.749Z,80.70
2018-08-07T19:21:05.182Z,81.00
2018-08-07T19:23:38.374Z,81.10
2018-08-07T19:26:11.405Z,80.70
2018-08-07T19:28:44.546Z,80.60
2018-08-07T19:31:17.618Z,80.70
2018-08-07T19:33:50.746Z,80.70
2018-08-07T19:36:23.703Z,80.70
2018-08-07T19:38:56.649Z,80.80
2018-08-07T19:41:29.662Z,80.80
2018-08-07T19:44:02.558Z,80.70
2018-08-07T19:46:35.550Z,81.20
2018-08-07T19:49:08.491Z,81.70
2018-08-07T19:51:42.438Z,82.10
2018-08-07T19:54:15.398Z,82.10
2018-08-07T19:56:48.429Z,82.30
2018-08-07T19:59:21.387Z,82.30
2018-08-07T20:01:54.449Z,82.30
2018-08-07T20:04:28.623Z,82.00
2018-08-07T20:07:01.727Z,81.50
2018-08-07T20:09:34.742Z,81.40
2018-08-07T20:12:07.833Z,81.60
2018-08-07T20:14:40.878Z,81.80
2018-08-07T20:42:54.398Z,81.70
2018-08-07T20:45:28.445Z,81.60
2018-08-07T20:48:01.466Z,82.20
2018-08-07T20:50:34.568Z,82.30
2018-08-07T20:53:07.624Z,82.60
2018-08-07T20:55:41.235Z,83.00
2018-08-07T20:58:14.866Z,83.20
2018-08-07T21:00:47.950Z,83.50
2018-08-07T21:03:20.904Z,83.40
2018-08-07T21:05:53.866Z,83.20
2018-08-07T21:08:28.168Z,83.10
2018-08-07T21:11:07.820Z,83.40
2018-08-07T21:13:40.736Z,83.40
2018-08-07T21:16:14.668Z,83.30
2018-08-07T21:18:47.628Z,83.30
2018-08-07T21:21:20.613Z,83.30
2018-08-07T21:23:53.590Z,83.50
2018-08-07T21:26:26.637Z,83.30
2018-08-07T21:28:59.608Z,83.60
2018-08-07T21:31:32.542Z,84.00
2018-08-07T21:34:05.518Z,84.40
2018-08-07T21:36:38.994Z,84.90
2018-08-07T21:39:13.194Z,84.80
2018-08-07T21:41:46.155Z,84.50
2018-08-07T21:44:19.162Z,84.20
2018-08-07T21:46:52.169Z,83.90
2018-08-07T21:49:25.051Z,84.10
2018-08-07T21:51:58.894Z,84.20
2018-08-07T21:54:31.921Z,84.00
2018-08-07T21:57:04.896Z,83.90
2018-08-07T21:59:37.904Z,84.00
2018-08-07T22:02:10.843Z,84.60
2018-08-07T22:04:43.717Z,84.70
2018-08-07T22:07:16.646Z,84.70
2018-08-07T22:09:51.050Z,84.60
2018-08-07T22:12:24.054Z,84.60
2018-08-07T22:14:57.155Z,84.60
2018-08-07T22:17:30.173Z,84.50
2018-08-07T22:20:04.933Z,84.60
2018-08-07T22:22:37.860Z,84.50
2018-08-07T22:25:11.487Z,84.70
2018-08-07T22:27:44.536Z,84.80
2018-08-07T22:30:21.359Z,84.70
2018-08-07T22:32:54.366Z,84.60
2018-08-07T22:35:27.810Z,84.80
2018-08-07T22:38:00.801Z,84.80
2018-08-07T22:40:34.341Z,84.90
2018-08-07T22:43:07.328Z,84.90
2018-08-07T22:45:40.194Z,84.70
2018-08-07T22:48:13.530Z,84.70
2018-08-07T22:50:46.550Z,84.60
2018-08-07T22:53:19.569Z,84.60
2018-08-07T22:55:52.596Z,84.50
2018-08-07T22:58:25.846Z,84.50
2018-08-07T23:00:59.355Z,84.80
2018-08-07T23:03:32.431Z,84.60
2018-08-07T23:06:05.403Z,84.40
2018-08-07T23:08:38.548Z,84.40
2018-08-07T23:11:12.267Z,84.50
2018-08-07T23:13:45.304Z,84.40
2018-08-07T23:16:18.384Z,84.40
2018-08-07T23:18:51.339Z,84.30
2018-08-07T23:21:26.286Z,84.40
2018-08-07T23:23:59.205Z,84.50
2018-08-07T23:26:32.225Z,84.50
2018-08-07T23:29:05.301Z,84.50
2018-08-07T23:31:38.362Z,84.40
2018-08-07T23:34:11.354Z,84.30
2018-08-07T23:36:44.326Z,84.30
2018-08-07T23:39:17.194Z,84.30
2018-08-07T23:41:50.241Z,84.40
2018-08-07T23:46:54.728Z,84.40
2018-08-07T23:49:27.621Z,84.50
2018-08-07T23:52:00.599Z,84.60
2018-08-07T23:54:33.946Z,84.60
2018-08-07T23:57:06.970Z,84.60
2018-08-07T23:59:40.939Z,84.70
